sensor_id;sensor_type;location;lat;lon;timestamp;pressure;altitude;pressure_sealevel;temperature;humidity
24336;BME280;33098;52.400;16.880;2023-02-11T00:00:45;102080.10;;;2.59;85.10
24336;BME280;33098;52.400;16.880;2023-02-11T00:03:23;102074.55;;;2.66;85.19
24336;BME280;33098;52.400;16.880;2023-02-11T00:06:03;102066.74;;;2.70;85.35
24336;BME280;33098;52.400;16.880;2023-02-11T00:08:37;102056.55;;;2.71;85.04
24336;BME280;33098;52.400;16.880;2023-02-11T00:11:12;102052.79;;;2.75;84.93
24336;BME280;33098;52.400;16.880;2023-02-11T00:13:45;102050.34;;;2.75;84.94
24336;BME280;33098;52.400;16.880;2023-02-11T00:16:16;102051.58;;;2.75;85.05
24336;BME280;33098;52.400;16.880;2023-02-11T00:18:43;102052.52;;;2.80;85.01
24336;BME280;33098;52.400;16.880;2023-02-11T00:21:17;102044.01;;;2.85;84.95
24336;BME280;33098;52.400;16.880;2023-02-11T00:23:45;102047.05;;;2.91;85.06
24336;BME280;33098;52.400;16.880;2023-02-11T00:26:15;102043.43;;;2.88;84.84
24336;BME280;33098;52.400;16.880;2023-02-11T00:28:45;102037.02;;;2.93;84.89
24336;BME280;33098;52.400;16.880;2023-02-11T00:31:15;102036.52;;;2.90;84.89
24336;BME280;33098;52.400;16.880;2023-02-11T00:33:46;102029.33;;;2.82;84.60
24336;BME280;33098;52.400;16.880;2023-02-11T00:36:15;102030.35;;;2.84;84.69
24336;BME280;33098;52.400;16.880;2023-02-11T00:38:47;102032.09;;;2.93;84.86
24336;BME280;33098;52.400;16.880;2023-02-11T00:41:19;102033.66;;;3.02;84.74
24336;BME280;33098;52.400;16.880;2023-02-11T00:43:47;102030.61;;;3.05;84.52
24336;BME280;33098;52.400;16.880;2023-02-11T00:46:17;102024.39;;;3.08;84.54
24336;BME280;33098;52.400;16.880;2023-02-11T00:48:46;102011.99;;;3.14;84.27
24336;BME280;33098;52.400;16.880;2023-02-11T00:51:17;101992.20;;;3.12;84.03
24336;BME280;33098;52.400;16.880;2023-02-11T00:53:44;101981.55;;;3.10;83.78
24336;BME280;33098;52.400;16.880;2023-02-11T00:56:11;101970.88;;;3.01;83.91
24336;BME280;33098;52.400;16.880;2023-02-11T00:58:39;101960.54;;;3.01;83.78
24336;BME280;33098;52.400;16.880;2023-02-11T01:01:08;101950.14;;;2.96;83.70
24336;BME280;33098;52.400;16.880;2023-02-11T01:03:35;101946.93;;;2.98;83.75
24336;BME280;33098;52.400;16.880;2023-02-11T01:06:06;101938.50;;;2.98;83.87
24336;BME280;33098;52.400;16.880;2023-02-11T01:08:33;101936.71;;;3.00;83.67
24336;BME280;33098;52.400;16.880;2023-02-11T01:11:07;101925.63;;;2.94;83.71
24336;BME280;33098;52.400;16.880;2023-02-11T01:13:40;101920.21;;;2.93;83.72
24336;BME280;33098;52.400;16.880;2023-02-11T01:16:09;101909.24;;;2.89;83.78
24336;BME280;33098;52.400;16.880;2023-02-11T01:18:42;101900.40;;;2.85;83.70
24336;BME280;33098;52.400;16.880;2023-02-11T01:21:10;101890.85;;;2.81;83.77
24336;BME280;33098;52.400;16.880;2023-02-11T01:23:44;101890.43;;;2.76;83.71
24336;BME280;33098;52.400;16.880;2023-02-11T01:26:12;101888.67;;;2.75;84.06
24336;BME280;33098;52.400;16.880;2023-02-11T01:28:38;101888.54;;;2.74;83.91
24336;BME280;33098;52.400;16.880;2023-02-11T01:31:08;101882.56;;;2.75;83.95
24336;BME280;33098;52.400;16.880;2023-02-11T01:33:35;101886.84;;;2.80;84.16
24336;BME280;33098;52.400;16.880;2023-02-11T01:36:10;101889.96;;;2.82;83.83
24336;BME280;33098;52.400;16.880;2023-02-11T01:38:37;101895.06;;;2.81;83.82
24336;BME280;33098;52.400;16.880;2023-02-11T01:41:10;101907.67;;;2.81;83.86
24336;BME280;33098;52.400;16.880;2023-02-11T01:43:47;101916.13;;;2.79;83.83
24336;BME280;33098;52.400;16.880;2023-02-11T01:46:25;101923.38;;;2.76;83.76
24336;BME280;33098;52.400;16.880;2023-02-11T01:49:09;101931.31;;;2.83;83.86
24336;BME280;33098;52.400;16.880;2023-02-11T01:54:19;101950.45;;;2.81;83.77
24336;BME280;33098;52.400;16.880;2023-02-11T01:57:07;101946.63;;;2.80;83.72
24336;BME280;33098;52.400;16.880;2023-02-11T02:00:32;101950.92;;;2.75;83.95
24336;BME280;33098;52.400;16.880;2023-02-11T02:02:59;101952.53;;;2.74;83.75
24336;BME280;33098;52.400;16.880;2023-02-11T02:05:52;101938.95;;;2.77;83.92
24336;BME280;33098;52.400;16.880;2023-02-11T02:10:51;101943.27;;;2.81;83.81
24336;BME280;33098;52.400;16.880;2023-02-11T02:13:22;101922.02;;;2.83;83.98
24336;BME280;33098;52.400;16.880;2023-02-11T02:15:56;101905.39;;;2.89;84.01
24336;BME280;33098;52.400;16.880;2023-02-11T02:18:40;101914.32;;;2.89;83.76
24336;BME280;33098;52.400;16.880;2023-02-11T02:21:28;101903.98;;;2.88;83.76
24336;BME280;33098;52.400;16.880;2023-02-11T02:26:53;101875.58;;;2.97;83.54
24336;BME280;33098;52.400;16.880;2023-02-11T02:35:47;101866.48;;;3.03;83.39
24336;BME280;33098;52.400;16.880;2023-02-11T02:43:29;101857.36;;;2.96;83.13
24336;BME280;33098;52.400;16.880;2023-02-11T02:46:09;101841.23;;;2.95;83.17
24336;BME280;33098;52.400;16.880;2023-02-11T02:48:39;101840.84;;;2.97;83.06
24336;BME280;33098;52.400;16.880;2023-02-11T02:56:36;101836.63;;;2.97;83.01
24336;BME280;33098;52.400;16.880;2023-02-11T03:02:15;101832.21;;;3.05;82.90
24336;BME280;33098;52.400;16.880;2023-02-11T03:10:41;101818.40;;;3.10;82.59
24336;BME280;33098;52.400;16.880;2023-02-11T03:13:13;101821.88;;;3.12;82.51
24336;BME280;33098;52.400;16.880;2023-02-11T03:15:49;101817.19;;;3.09;82.58
24336;BME280;33098;52.400;16.880;2023-02-11T03:18:23;101812.34;;;3.07;82.39
24336;BME280;33098;52.400;16.880;2023-02-11T03:20:53;101812.41;;;3.04;82.20
24336;BME280;33098;52.400;16.880;2023-02-11T03:23:28;101807.73;;;3.03;82.43
24336;BME280;33098;52.400;16.880;2023-02-11T03:25:58;101810.48;;;3.04;82.37
24336;BME280;33098;52.400;16.880;2023-02-11T03:28:43;101810.14;;;2.97;82.21
24336;BME280;33098;52.400;16.880;2023-02-11T03:34:08;101802.15;;;2.94;82.28
24336;BME280;33098;52.400;16.880;2023-02-11T03:36:47;101794.22;;;2.96;82.51
24336;BME280;33098;52.400;16.880;2023-02-11T03:39:20;101781.67;;;3.06;82.62
24336;BME280;33098;52.400;16.880;2023-02-11T03:41:54;101782.84;;;3.08;82.33
24336;BME280;33098;52.400;16.880;2023-02-11T03:44:30;101771.11;;;3.08;82.31
24336;BME280;33098;52.400;16.880;2023-02-11T03:47:02;101755.33;;;3.07;82.20
24336;BME280;33098;52.400;16.880;2023-02-11T03:49:32;101747.70;;;3.04;82.02
24336;BME280;33098;52.400;16.880;2023-02-11T03:52:05;101746.23;;;3.06;82.03
24336;BME280;33098;52.400;16.880;2023-02-11T03:54:39;101743.99;;;3.05;82.03
24336;BME280;33098;52.400;16.880;2023-02-11T03:57:10;101749.29;;;2.97;81.95
24336;BME280;33098;52.400;16.880;2023-02-11T03:59:51;101744.52;;;2.98;82.09
24336;BME280;33098;52.400;16.880;2023-02-11T04:02:21;101738.23;;;3.04;82.23
24336;BME280;33098;52.400;16.880;2023-02-11T04:04:49;101726.65;;;3.11;82.21
24336;BME280;33098;52.400;16.880;2023-02-11T04:07:16;101715.92;;;3.18;82.29
24336;BME280;33098;52.400;16.880;2023-02-11T04:09:45;101714.27;;;3.15;81.81
24336;BME280;33098;52.400;16.880;2023-02-11T04:12:13;101719.49;;;3.10;81.80
24336;BME280;33098;52.400;16.880;2023-02-11T04:14:41;101718.14;;;3.01;81.89
24336;BME280;33098;52.400;16.880;2023-02-11T04:17:08;101714.45;;;2.94;82.12
24336;BME280;33098;52.400;16.880;2023-02-11T04:19:39;101710.81;;;2.93;82.23
24336;BME280;33098;52.400;16.880;2023-02-11T04:22:07;101709.57;;;3.00;82.52
24336;BME280;33098;52.400;16.880;2023-02-11T04:24:37;101707.37;;;3.10;82.62
24336;BME280;33098;52.400;16.880;2023-02-11T04:27:07;101704.73;;;3.17;82.61
24336;BME280;33098;52.400;16.880;2023-02-11T04:29:34;101701.46;;;3.21;82.50
24336;BME280;33098;52.400;16.880;2023-02-11T04:32:02;101694.86;;;3.19;82.26
24336;BME280;33098;52.400;16.880;2023-02-11T04:34:29;101693.02;;;3.16;82.60
24336;BME280;33098;52.400;16.880;2023-02-11T04:36:59;101689.10;;;3.11;82.87
24336;BME280;33098;52.400;16.880;2023-02-11T04:39:27;101680.18;;;3.04;82.93
24336;BME280;33098;52.400;16.880;2023-02-11T04:41:55;101679.64;;;3.11;83.29
24336;BME280;33098;52.400;16.880;2023-02-11T04:44:22;101671.21;;;3.11;83.04
24336;BME280;33098;52.400;16.880;2023-02-11T04:46:49;101672.03;;;3.07;83.12
24336;BME280;33098;52.400;16.880;2023-02-11T04:49:19;101671.26;;;3.02;83.64
24336;BME280;33098;52.400;16.880;2023-02-11T04:52:06;101679.08;;;3.00;83.83
24336;BME280;33098;52.400;16.880;2023-02-11T04:54:33;101685.00;;;3.01;84.10
24336;BME280;33098;52.400;16.880;2023-02-11T04:57:00;101686.63;;;2.99;84.28
24336;BME280;33098;52.400;16.880;2023-02-11T04:59:27;101683.70;;;2.97;84.65
24336;BME280;33098;52.400;16.880;2023-02-11T05:01:55;101683.08;;;3.00;85.01
24336;BME280;33098;52.400;16.880;2023-02-11T05:04:26;101678.56;;;2.99;85.24
24336;BME280;33098;52.400;16.880;2023-02-11T05:06:53;101669.80;;;2.99;85.32
24336;BME280;33098;52.400;16.880;2023-02-11T05:09:20;101658.15;;;3.01;85.33
24336;BME280;33098;52.400;16.880;2023-02-11T05:11:53;101657.77;;;3.02;85.47
24336;BME280;33098;52.400;16.880;2023-02-11T05:14:20;101646.05;;;3.01;85.34
24336;BME280;33098;52.400;16.880;2023-02-11T05:16:47;101651.27;;;3.03;85.71
24336;BME280;33098;52.400;16.880;2023-02-11T05:19:14;101646.95;;;3.07;85.81
24336;BME280;33098;52.400;16.880;2023-02-11T05:21:41;101639.58;;;3.06;85.73
24336;BME280;33098;52.400;16.880;2023-02-11T05:24:08;101639.34;;;3.09;85.71
24336;BME280;33098;52.400;16.880;2023-02-11T05:26:38;101645.88;;;3.07;86.27
24336;BME280;33098;52.400;16.880;2023-02-11T05:29:05;101643.30;;;3.00;86.60
24336;BME280;33098;52.400;16.880;2023-02-11T05:31:32;101650.00;;;2.99;86.65
24336;BME280;33098;52.400;16.880;2023-02-11T05:33:59;101638.94;;;2.99;87.04
24336;BME280;33098;52.400;16.880;2023-02-11T05:36:29;101637.09;;;3.02;87.12
24336;BME280;33098;52.400;16.880;2023-02-11T05:38:59;101638.79;;;3.04;87.22
24336;BME280;33098;52.400;16.880;2023-02-11T05:41:26;101642.73;;;3.07;87.07
24336;BME280;33098;52.400;16.880;2023-02-11T05:43:56;101637.30;;;3.01;87.70
24336;BME280;33098;52.400;16.880;2023-02-11T05:46:26;101636.90;;;2.96;87.85
24336;BME280;33098;52.400;16.880;2023-02-11T05:48:56;101635.98;;;2.91;88.09
24336;BME280;33098;52.400;16.880;2023-02-11T05:51:23;101617.77;;;2.90;88.39
24336;BME280;33098;52.400;16.880;2023-02-11T05:53:51;101611.89;;;2.94;88.36
24336;BME280;33098;52.400;16.880;2023-02-11T05:56:18;101612.08;;;3.00;88.48
24336;BME280;33098;52.400;16.880;2023-02-11T05:58:45;101616.34;;;2.98;88.86
24336;BME280;33098;52.400;16.880;2023-02-11T06:01:14;101623.72;;;2.97;88.74
24336;BME280;33098;52.400;16.880;2023-02-11T06:03:41;101621.98;;;3.02;88.85
24336;BME280;33098;52.400;16.880;2023-02-11T06:06:11;101625.47;;;3.09;88.90
24336;BME280;33098;52.400;16.880;2023-02-11T06:08:38;101627.13;;;3.13;88.50
24336;BME280;33098;52.400;16.880;2023-02-11T06:11:05;101618.87;;;3.20;88.45
24336;BME280;33098;52.400;16.880;2023-02-11T06:13:32;101613.11;;;3.30;88.47
24336;BME280;33098;52.400;16.880;2023-02-11T06:16:00;101611.91;;;3.35;88.26
24336;BME280;33098;52.400;16.880;2023-02-11T06:18:30;101610.45;;;3.37;88.37
24336;BME280;33098;52.400;16.880;2023-02-11T06:21:00;101610.22;;;3.33;88.36
24336;BME280;33098;52.400;16.880;2023-02-11T06:23:47;101608.48;;;3.33;88.34
24336;BME280;33098;52.400;16.880;2023-02-11T06:26:17;101616.58;;;3.32;88.87
24336;BME280;33098;52.400;16.880;2023-02-11T06:28:46;101617.37;;;3.29;88.82
24336;BME280;33098;52.400;16.880;2023-02-11T06:31:13;101612.95;;;3.30;89.09
24336;BME280;33098;52.400;16.880;2023-02-11T06:33:41;101616.11;;;3.30;89.38
24336;BME280;33098;52.400;16.880;2023-02-11T06:36:12;101621.04;;;3.29;89.73
24336;BME280;33098;52.400;16.880;2023-02-11T06:38:41;101603.98;;;3.31;89.94
24336;BME280;33098;52.400;16.880;2023-02-11T06:41:10;101601.17;;;3.31;90.03
24336;BME280;33098;52.400;16.880;2023-02-11T06:43:39;101591.95;;;3.29;90.53
24336;BME280;33098;52.400;16.880;2023-02-11T06:46:10;101594.19;;;3.24;90.78
24336;BME280;33098;52.400;16.880;2023-02-11T06:48:37;101594.76;;;3.28;91.23
24336;BME280;33098;52.400;16.880;2023-02-11T06:51:06;101600.48;;;3.31;91.24
24336;BME280;33098;52.400;16.880;2023-02-11T06:53:38;101603.01;;;3.34;91.39
24336;BME280;33098;52.400;16.880;2023-02-11T06:56:13;101612.04;;;3.37;91.54
24336;BME280;33098;52.400;16.880;2023-02-11T06:58:44;101616.55;;;3.33;92.69
24336;BME280;33098;52.400;16.880;2023-02-11T07:01:14;101608.67;;;3.27;92.76
24336;BME280;33098;52.400;16.880;2023-02-11T07:03:45;101606.99;;;3.30;93.31
24336;BME280;33098;52.400;16.880;2023-02-11T07:06:16;101611.02;;;3.30;93.55
24336;BME280;33098;52.400;16.880;2023-02-11T07:08:44;101605.13;;;3.27;94.31
24336;BME280;33098;52.400;16.880;2023-02-11T07:11:17;101602.88;;;3.26;94.78
24336;BME280;33098;52.400;16.880;2023-02-11T07:13:45;101601.88;;;3.25;95.24
24336;BME280;33098;52.400;16.880;2023-02-11T07:16:15;101601.13;;;3.32;95.26
24336;BME280;33098;52.400;16.880;2023-02-11T07:18:49;101604.48;;;3.32;96.03
24336;BME280;33098;52.400;16.880;2023-02-11T07:21:22;101605.89;;;3.31;96.27
24336;BME280;33098;52.400;16.880;2023-02-11T07:23:52;101599.83;;;3.35;96.28
24336;BME280;33098;52.400;16.880;2023-02-11T07:26:23;101589.06;;;3.43;96.02
24336;BME280;33098;52.400;16.880;2023-02-11T07:28:52;101584.42;;;3.46;96.27
24336;BME280;33098;52.400;16.880;2023-02-11T07:31:23;101586.47;;;3.48;96.69
24336;BME280;33098;52.400;16.880;2023-02-11T07:33:56;101576.64;;;3.48;96.89
24336;BME280;33098;52.400;16.880;2023-02-11T07:36:29;101586.77;;;3.49;96.68
24336;BME280;33098;52.400;16.880;2023-02-11T07:39:00;101584.85;;;3.55;96.67
24336;BME280;33098;52.400;16.880;2023-02-11T07:41:33;101578.45;;;3.51;97.18
24336;BME280;33098;52.400;16.880;2023-02-11T07:44:04;101568.89;;;3.54;96.87
24336;BME280;33098;52.400;16.880;2023-02-11T07:46:36;101572.44;;;3.64;96.61
24336;BME280;33098;52.400;16.880;2023-02-11T07:49:09;101571.35;;;3.76;96.90
24336;BME280;33098;52.400;16.880;2023-02-11T07:51:38;101577.58;;;3.80;96.54
24336;BME280;33098;52.400;16.880;2023-02-11T07:54:10;101570.91;;;3.74;96.85
24336;BME280;33098;52.400;16.880;2023-02-11T07:56:38;101561.70;;;3.70;96.90
24336;BME280;33098;52.400;16.880;2023-02-11T07:59:09;101560.61;;;3.71;97.19
24336;BME280;33098;52.400;16.880;2023-02-11T08:01:41;101557.37;;;3.74;97.49
24336;BME280;33098;52.400;16.880;2023-02-11T08:04:13;101564.17;;;3.75;97.45
24336;BME280;33098;52.400;16.880;2023-02-11T08:06:42;101572.69;;;3.84;97.66
24336;BME280;33098;52.400;16.880;2023-02-11T08:09:14;101576.38;;;3.84;98.15
24336;BME280;33098;52.400;16.880;2023-02-11T08:11:46;101579.03;;;3.83;97.66
24336;BME280;33098;52.400;16.880;2023-02-11T08:14:13;101582.54;;;3.83;98.07
24336;BME280;33098;52.400;16.880;2023-02-11T08:16:41;101593.16;;;3.81;98.15
24336;BME280;33098;52.400;16.880;2023-02-11T08:19:14;101590.90;;;3.80;98.58
24336;BME280;33098;52.400;16.880;2023-02-11T08:21:48;101594.92;;;3.81;98.44
24336;BME280;33098;52.400;16.880;2023-02-11T08:24:17;101591.52;;;3.83;98.87
24336;BME280;33098;52.400;16.880;2023-02-11T08:26:44;101580.79;;;3.88;98.91
24336;BME280;33098;52.400;16.880;2023-02-11T08:29:15;101585.67;;;3.90;99.02
24336;BME280;33098;52.400;16.880;2023-02-11T08:31:47;101590.83;;;3.93;99.25
24336;BME280;33098;52.400;16.880;2023-02-11T08:34:15;101594.48;;;3.99;99.40
24336;BME280;33098;52.400;16.880;2023-02-11T08:36:46;101583.42;;;4.05;99.53
24336;BME280;33098;52.400;16.880;2023-02-11T08:39:24;101578.91;;;4.03;99.66
24336;BME280;33098;52.400;16.880;2023-02-11T08:41:56;101572.76;;;4.03;99.69
24336;BME280;33098;52.400;16.880;2023-02-11T08:44:25;101568.13;;;4.05;99.42
24336;BME280;33098;52.400;16.880;2023-02-11T08:46:57;101567.17;;;4.02;100.00
24336;BME280;33098;52.400;16.880;2023-02-11T08:49:26;101565.87;;;3.99;99.91
24336;BME280;33098;52.400;16.880;2023-02-11T08:51:59;101557.25;;;3.99;99.99
24336;BME280;33098;52.400;16.880;2023-02-11T08:54:31;101551.57;;;3.96;100.00
24336;BME280;33098;52.400;16.880;2023-02-11T08:56:59;101558.02;;;3.97;100.00
24336;BME280;33098;52.400;16.880;2023-02-11T08:59:29;101564.77;;;3.95;100.00
24336;BME280;33098;52.400;16.880;2023-02-11T09:01:57;101567.83;;;3.93;100.00
24336;BME280;33098;52.400;16.880;2023-02-11T09:04:24;101571.20;;;3.97;100.00
24336;BME280;33098;52.400;16.880;2023-02-11T09:06:57;101567.37;;;4.01;100.00
24336;BME280;33098;52.400;16.880;2023-02-11T09:09:26;101559.25;;;3.97;100.00
24336;BME280;33098;52.400;16.880;2023-02-11T09:12:03;101562.48;;;4.01;100.00
24336;BME280;33098;52.400;16.880;2023-02-11T09:14:32;101557.98;;;4.03;100.00
24336;BME280;33098;52.400;16.880;2023-02-11T09:17:00;101568.02;;;4.14;100.00
24336;BME280;33098;52.400;16.880;2023-02-11T09:19:32;101577.85;;;4.14;100.00
24336;BME280;33098;52.400;16.880;2023-02-11T09:22:00;101580.94;;;4.11;100.00
24336;BME280;33098;52.400;16.880;2023-02-11T09:24:31;101580.07;;;4.16;100.00
24336;BME280;33098;52.400;16.880;2023-02-11T09:26:58;101577.20;;;4.22;100.00
24336;BME280;33098;52.400;16.880;2023-02-11T09:29:26;101563.92;;;4.21;100.00
24336;BME280;33098;52.400;16.880;2023-02-11T09:31:53;101576.56;;;4.21;100.00
24336;BME280;33098;52.400;16.880;2023-02-11T09:34:22;101568.65;;;4.21;100.00
24336;BME280;33098;52.400;16.880;2023-02-11T09:36:50;101561.27;;;4.26;100.00
24336;BME280;33098;52.400;16.880;2023-02-11T09:39:21;101570.02;;;4.32;100.00
24336;BME280;33098;52.400;16.880;2023-02-11T09:44:53;101558.96;;;4.42;100.00
24336;BME280;33098;52.400;16.880;2023-02-11T09:47:27;101571.85;;;4.46;100.00
24336;BME280;33098;52.400;16.880;2023-02-11T09:50:01;101565.34;;;4.56;100.00
24336;BME280;33098;52.400;16.880;2023-02-11T09:55:20;101545.92;;;4.82;100.00
24336;BME280;33098;52.400;16.880;2023-02-11T09:57:47;101534.48;;;4.87;100.00
24336;BME280;33098;52.400;16.880;2023-02-11T10:00:43;101540.64;;;4.87;100.00
24336;BME280;33098;52.400;16.880;2023-02-11T10:08:40;101547.50;;;4.83;100.00
24336;BME280;33098;52.400;16.880;2023-02-11T10:11:25;101566.52;;;4.82;100.00
24336;BME280;33098;52.400;16.880;2023-02-11T10:14:18;101546.96;;;4.87;100.00
24336;BME280;33098;52.400;16.880;2023-02-11T10:19:40;101529.84;;;4.99;100.00
24336;BME280;33098;52.400;16.880;2023-02-11T10:22:18;101517.22;;;5.06;100.00
24336;BME280;33098;52.400;16.880;2023-02-11T10:24:58;101509.70;;;5.10;100.00
24336;BME280;33098;52.400;16.880;2023-02-11T10:27:35;101508.14;;;5.19;100.00
24336;BME280;33098;52.400;16.880;2023-02-11T10:30:18;101506.98;;;5.26;100.00
24336;BME280;33098;52.400;16.880;2023-02-11T10:35:37;101496.34;;;5.32;100.00
24336;BME280;33098;52.400;16.880;2023-02-11T10:38:03;101488.14;;;5.35;100.00
24336;BME280;33098;52.400;16.880;2023-02-11T10:40:34;101489.32;;;5.36;100.00
24336;BME280;33098;52.400;16.880;2023-02-11T10:43:15;101481.78;;;5.39;100.00
24336;BME280;33098;52.400;16.880;2023-02-11T10:45:50;101481.56;;;5.41;100.00
24336;BME280;33098;52.400;16.880;2023-02-11T10:53:36;101467.86;;;5.45;100.00
24336;BME280;33098;52.400;16.880;2023-02-11T10:56:10;101475.12;;;5.39;100.00
24336;BME280;33098;52.400;16.880;2023-02-11T10:58:44;101476.11;;;5.40;100.00
24336;BME280;33098;52.400;16.880;2023-02-11T11:01:12;101458.14;;;5.41;100.00
24336;BME280;33098;52.400;16.880;2023-02-11T11:03:46;101455.30;;;5.42;100.00
24336;BME280;33098;52.400;16.880;2023-02-11T11:06:14;101436.48;;;5.41;100.00
24336;BME280;33098;52.400;16.880;2023-02-11T11:08:50;101434.66;;;5.43;100.00
24336;BME280;33098;52.400;16.880;2023-02-11T11:11:20;101427.08;;;5.43;100.00
24336;BME280;33098;52.400;16.880;2023-02-11T11:21:49;101397.88;;;5.38;100.00
24336;BME280;33098;52.400;16.880;2023-02-11T11:24:32;101396.33;;;5.42;100.00
24336;BME280;33098;52.400;16.880;2023-02-11T11:27:03;101388.48;;;5.39;100.00
24336;BME280;33098;52.400;16.880;2023-02-11T11:29:37;101399.85;;;5.37;100.00
24336;BME280;33098;52.400;16.880;2023-02-11T11:32:15;101413.02;;;5.30;100.00
24336;BME280;33098;52.400;16.880;2023-02-11T11:34:49;101412.77;;;5.27;100.00
24336;BME280;33098;52.400;16.880;2023-02-11T11:37:27;101408.93;;;5.30;100.00
24336;BME280;33098;52.400;16.880;2023-02-11T11:42:30;101397.45;;;5.35;100.00
24336;BME280;33098;52.400;16.880;2023-02-11T11:50:47;101401.70;;;5.35;100.00
24336;BME280;33098;52.400;16.880;2023-02-11T11:56:29;101429.17;;;5.39;100.00
24336;BME280;33098;52.400;16.880;2023-02-11T11:59:10;101434.44;;;5.39;100.00
24336;BME280;33098;52.400;16.880;2023-02-11T12:04:45;101450.04;;;5.45;100.00
24336;BME280;33098;52.400;16.880;2023-02-11T12:10:39;101449.17;;;5.45;100.00
24336;BME280;33098;52.400;16.880;2023-02-11T12:22:10;101460.95;;;5.45;100.00
24336;BME280;33098;52.400;16.880;2023-02-11T12:24:53;101461.75;;;5.48;100.00
24336;BME280;33098;52.400;16.880;2023-02-11T12:30:27;101469.30;;;5.52;100.00
24336;BME280;33098;52.400;16.880;2023-02-11T12:35:58;101464.93;;;5.51;100.00
24336;BME280;33098;52.400;16.880;2023-02-11T12:44:52;101453.23;;;5.36;100.00
24336;BME280;33098;52.400;16.880;2023-02-11T12:57:09;101464.16;;;5.39;100.00
24336;BME280;33098;52.400;16.880;2023-02-11T12:59:21;101466.41;;;5.41;100.00
24336;BME280;33098;52.400;16.880;2023-02-11T13:01:58;101476.98;;;5.41;100.00
24336;BME280;33098;52.400;16.880;2023-02-11T13:04:38;101465.27;;;5.43;100.00
24336;BME280;33098;52.400;16.880;2023-02-11T13:07:16;101466.02;;;5.43;100.00
24336;BME280;33098;52.400;16.880;2023-02-11T13:12:45;101471.92;;;5.35;100.00
24336;BME280;33098;52.400;16.880;2023-02-11T13:15:33;101473.09;;;5.37;100.00
24336;BME280;33098;52.400;16.880;2023-02-11T13:31:53;101473.79;;;5.28;100.00
24336;BME280;33098;52.400;16.880;2023-02-11T13:37:34;101466.68;;;5.30;100.00
24336;BME280;33098;52.400;16.880;2023-02-11T13:40:06;101468.77;;;5.35;100.00
24336;BME280;33098;52.400;16.880;2023-02-11T13:42:54;101472.61;;;5.44;100.00
24336;BME280;33098;52.400;16.880;2023-02-11T13:45:44;101473.92;;;5.47;100.00
24336;BME280;33098;52.400;16.880;2023-02-11T13:48:22;101480.09;;;5.51;100.00
24336;BME280;33098;52.400;16.880;2023-02-11T13:50:57;101480.66;;;5.50;100.00
24336;BME280;33098;52.400;16.880;2023-02-11T13:53:36;101478.23;;;5.53;100.00
24336;BME280;33098;52.400;16.880;2023-02-11T13:59:01;101482.87;;;5.65;100.00
24336;BME280;33098;52.400;16.880;2023-02-11T14:08:14;101478.64;;;5.65;100.00
24336;BME280;33098;52.400;16.880;2023-02-11T14:11:09;101471.31;;;5.63;100.00
24336;BME280;33098;52.400;16.880;2023-02-11T14:16:21;101472.16;;;5.64;100.00
24336;BME280;33098;52.400;16.880;2023-02-11T14:21:21;101472.35;;;5.63;100.00
24336;BME280;33098;52.400;16.880;2023-02-11T14:27:06;101479.36;;;5.73;100.00
24336;BME280;33098;52.400;16.880;2023-02-11T14:29:46;101485.34;;;5.78;100.00
24336;BME280;33098;52.400;16.880;2023-02-11T14:32:28;101492.67;;;5.79;100.00
24336;BME280;33098;52.400;16.880;2023-02-11T14:38:25;101503.08;;;5.83;100.00
24336;BME280;33098;52.400;16.880;2023-02-11T14:43:46;101515.36;;;5.88;100.00
24336;BME280;33098;52.400;16.880;2023-02-11T14:46:21;101520.05;;;5.91;100.00
24336;BME280;33098;52.400;16.880;2023-02-11T14:48:57;101524.27;;;5.90;100.00
24336;BME280;33098;52.400;16.880;2023-02-11T14:51:30;101528.27;;;5.96;100.00
24336;BME280;33098;52.400;16.880;2023-02-11T14:54:14;101520.80;;;6.02;100.00
24336;BME280;33098;52.400;16.880;2023-02-11T14:56:45;101529.95;;;6.03;100.00
24336;BME280;33098;52.400;16.880;2023-02-11T14:59:21;101542.77;;;6.09;100.00
24336;BME280;33098;52.400;16.880;2023-02-11T15:01:52;101550.83;;;6.14;100.00
24336;BME280;33098;52.400;16.880;2023-02-11T15:04:33;101558.16;;;6.20;100.00
24336;BME280;33098;52.400;16.880;2023-02-11T15:07:05;101567.94;;;6.26;100.00
24336;BME280;33098;52.400;16.880;2023-02-11T15:09:47;101563.73;;;6.26;100.00
24336;BME280;33098;52.400;16.880;2023-02-11T15:12:25;101559.88;;;6.29;100.00
24336;BME280;33098;52.400;16.880;2023-02-11T15:15:00;101566.08;;;6.32;100.00
24336;BME280;33098;52.400;16.880;2023-02-11T15:17:30;101564.80;;;6.33;100.00
24336;BME280;33098;52.400;16.880;2023-02-11T15:20:00;101566.46;;;6.35;100.00
24336;BME280;33098;52.400;16.880;2023-02-11T15:22:31;101571.20;;;6.41;100.00
24336;BME280;33098;52.400;16.880;2023-02-11T15:27:39;101586.48;;;6.46;100.00
24336;BME280;33098;52.400;16.880;2023-02-11T15:30:31;101575.71;;;6.50;100.00
24336;BME280;33098;52.400;16.880;2023-02-11T15:33:02;101569.19;;;6.50;100.00
24336;BME280;33098;52.400;16.880;2023-02-11T15:35:34;101565.83;;;6.50;100.00
24336;BME280;33098;52.400;16.880;2023-02-11T15:38:04;101567.64;;;6.49;100.00
24336;BME280;33098;52.400;16.880;2023-02-11T15:40:34;101575.67;;;6.48;100.00
24336;BME280;33098;52.400;16.880;2023-02-11T15:43:10;101569.81;;;6.44;100.00
24336;BME280;33098;52.400;16.880;2023-02-11T15:45:43;101575.02;;;6.46;100.00
24336;BME280;33098;52.400;16.880;2023-02-11T15:48:27;101583.73;;;6.48;100.00
24336;BME280;33098;52.400;16.880;2023-02-11T15:51:19;101585.33;;;6.52;100.00
24336;BME280;33098;52.400;16.880;2023-02-11T15:53:56;101590.70;;;6.58;100.00